首页
METAR-TAF:

METAR-TAF

机场 :

Resia Pass, 意大利

纬度: 46-50N, 经度: 010-30E, 海拔: 1800米

当前天气观测

该预报发布于57分钟前的11:55 UTC
风速2节,风向西转西南
温度 2°C
湿度 69%
气压 1017 hPa
能見度: 8000

METAR: LIVE 261155Z 24002KT 8000 NSC 02/M03 Q1017 RMK SCT SCT180 VIS MIN 8000

时间: 13:52 (12:52 UTC)


TAF: 丢失

超过4000个机场的气象观测和天气预报(METAR&TAF报告)。

可查询的气象台以黄色和红色小点在地图上表示。

将鼠标移到小点上方,可查看气象台名称。

然后点击查看天气观测和预报。

如需切换地图:点击带黑十字的绿色按钮放大地图;点击带横线的绿色按钮缩小地图;或者点击绿色箭头查看邻近地区的地图。


METAR-TAF: